Observations for AMSTERDAM SCHIPHOL, Netherlands (EHAM)

EHAM 211755Z 16009KT CAVOK 04/02 Q1013 NOSIG
EHAM 211725Z 16008KT CAVOK 04/02 Q1013 NOSIG
EHAM 211655Z 15007KT CAVOK 04/02 Q1013 NOSIG
EHAM 211625Z 16007KT 9999 FEW023 03/01 Q1014 NOSIG  
EHAM 211555Z 17006KT 9999 FEW023 04/01 Q1014 NOSIG  
EHAM 211525Z 18006KT 9999 FEW023 05/02 Q1014 NOSIG  
EHAM 211455Z 23005KT 200V260 9999 FEW023 SCT043 05/02 Q1014 NOSIG   
EHAM 211425Z 24008KT 210V270 9999 VCSH FEW023TCU SCT040 06/02 Q1015 BECMG CAVOK 
EHAM 211355Z 25005KT 220V280 9999 FEW023TCU 06/01 Q1015 NOSIG   
EHAM 211325Z 25006KT 210V280 9999 FEW025 06/01 Q1015 NOSIG  
EHAM 211255Z 25008KT 9999 FEW025 06/01 Q1015 NOSIG  
EHAM 211225Z 22008KT 190V250 9999 FEW025 07/02 Q1015 NOSIG  
EHAM 211155Z 25004KT 200V300 9999 FEW025 07/02 Q1015 NOSIG  
EHAM 211125Z 27004KT 230V340 9999 FEW025 07/02 Q1015 NOSIG  
EHAM 211055Z 26005KT 9999 FEW025 06/02 Q1015 NOSIG  
EHAM 211025Z 26006KT 9999 FEW025 04/01 Q1015 NOSIG  
EHAM 210955Z 27005KT 9999 FEW025 04/01 Q1014 NOSIG  
EHAM 210925Z 29004KT 270V010 9999 FEW025 03/01 Q1014 NOSIG  
EHAM 210855Z 28005KT 270V360 9999 FEW025 03/00 Q1014 NOSIG  
EHAM 210825Z 27005KT 9999 FEW025 01/M01 Q1014 NOSIG 
EHAM 210755Z 28003KT 9999 VCSH FEW020CB 01/M01 Q1013 NOSIG  
EHAM 210725Z 30004KT 9999 FEW020CB 01/M01 Q1013 NOSIG   
EHAM 210655Z 30007KT 9999 VCSH FEW020CB 01/M01 Q1012 NOSIG  
EHAM 210625Z 30007KT 9999 FEW025 01/M01 Q1012 NOSIG 
EHAM 210555Z 29005KT 9999 FEW025 01/M01 Q1011 NOSIG 
EHAM 210525Z 29006KT 9999 FEW025 01/M01 Q1011 NOSIG 
EHAM 210455Z 29006KT 9999 FEW025 02/M01 Q1010 NOSIG 
EHAM 210425Z 31008KT 9999 FEW025 02/M00 Q1010 NOSIG 
EHAM 210355Z 32010KT 9999 FEW025 03/M00 Q1010 NOSIG 
EHAM 210325Z 32008KT 9999 FEW025 03/00 Q1009 NOSIG  
EHAM 210255Z 32010KT 9999 VCSH FEW022 02/M00 Q1009 NOSIG
EHAM 210225Z 31010KT 9999 FEW022 02/M00 Q1008 NOSIG 
EHAM 210155Z 31009KT 290V010 9999 -SHRAGS FEW020 SCT045 02/M00 Q1008 NOSIG  
EHAM 210125Z 33011KT 9999 VCSH FEW025 03/M00 Q1007 NOSIG
EHAM 210055Z 32009KT 9999 FEW025 02/M00 Q1006 NOSIG 
EHAM 210025Z 30007KT 9999 FEW025 01/M00 Q1006 NOSIG 
EHAM 202355Z 30005KT 9999 FEW022 01/M00 Q1005 NOSIG 
EHAM 202325Z 30004KT 9999 FEW022 01/M00 Q1005 NOSIG 
EHAM 202255Z VRB02KT 9999 VCSH FEW020CB 03/01 Q1004 NOSIG   
EHAM 202225Z 31005KT 290V360 9999 FEW017 FEW020CB 03/02 Q1004 TEMPO 6000 SHGSRA 
EHAM 202155Z 24004KT 200V270 9999 FEW017 FEW020CB 03/02 Q1003 TEMPO 6000 SHGSRA 
EHAM 202125Z 26005KT 9999 FEW017 FEW020CB 03/02 Q1003 TEMPO 6000 SHRA   
EHAM 202055Z 28006KT 250V320 8000 -SHRA FEW017 FEW020CB 03/02 Q1002 TEMPO 6000 SHRA 
EHAM 202025Z 28005KT 9999 FEW025 03/02 Q1002 TEMPO 6000 SHRA SCT012 SCT020CB
EHAM 201955Z 27005KT 9999 -RADZ FEW025 03/02 Q1002 NOSIG
EHAM 201925Z 28003KT 9999 -RADZ FEW012 SCT020 BKN040 02/02 Q1001 TEMPO 7000 RA BKN015   
EHAM 201855Z 30009KT 8000 -RADZ FEW006 SCT015 BKN029 03/02 Q1001 TEMPO 8000 BKN013  
EHAM 201825Z VRB02KT 5000 -RADZ FEW006 BKN009 BKN018 03/02 Q1000 TEMPO BKN014   
EHAM 201755Z 00000KT 7000 -RADZ FEW006 BKN012 03/02 Q1000 TEMPO RA BKN008   
EHAM 201725Z 16003KT 8000 -RADZ FEW009 SCT013 BKN024 03/02 Q1000 TEMPO -SHRA BKN012 FEW020TCU